sensor_id;sensor_type;location;lat;lon;timestamp;pressure;altitude;pressure_sealevel;temperature;humidity
21109;BME280;10712;52.944;9.098;2023-02-18T00:00:20;101753.28;;;14.54;46.89
21109;BME280;10712;52.944;9.098;2023-02-18T00:02:48;101750.00;;;14.49;47.14
21109;BME280;10712;52.944;9.098;2023-02-18T00:05:15;101759.53;;;14.39;47.26
21109;BME280;10712;52.944;9.098;2023-02-18T00:07:41;101759.19;;;14.45;47.05
21109;BME280;10712;52.944;9.098;2023-02-18T00:10:12;101770.09;;;14.42;47.15
21109;BME280;10712;52.944;9.098;2023-02-18T00:12:38;101768.19;;;14.44;47.30
21109;BME280;10712;52.944;9.098;2023-02-18T00:15:05;101766.09;;;14.49;47.27
21109;BME280;10712;52.944;9.098;2023-02-18T00:17:32;101772.31;;;14.49;47.26
21109;BME280;10712;52.944;9.098;2023-02-18T00:19:58;101770.94;;;14.42;47.30
21109;BME280;10712;52.944;9.098;2023-02-18T00:22:24;101778.91;;;14.44;47.34
21109;BME280;10712;52.944;9.098;2023-02-18T00:24:50;101776.28;;;14.58;47.51
21109;BME280;10712;52.944;9.098;2023-02-18T00:27:16;101775.44;;;14.57;47.52
21109;BME280;10712;52.944;9.098;2023-02-18T00:29:43;101771.16;;;14.69;47.24
21109;BME280;10712;52.944;9.098;2023-02-18T00:32:09;101770.19;;;14.70;47.21
21109;BME280;10712;52.944;9.098;2023-02-18T00:34:35;101774.69;;;14.70;47.23
21109;BME280;10712;52.944;9.098;2023-02-18T00:37:03;101780.16;;;14.68;47.43
21109;BME280;10712;52.944;9.098;2023-02-18T00:39:29;101779.03;;;14.72;47.48
21109;BME280;10712;52.944;9.098;2023-02-18T00:41:55;101777.47;;;14.68;47.92
21109;BME280;10712;52.944;9.098;2023-02-18T00:44:21;101768.59;;;14.82;47.56
21109;BME280;10712;52.944;9.098;2023-02-18T00:46:47;101775.03;;;14.79;47.53
21109;BME280;10712;52.944;9.098;2023-02-18T00:49:15;101775.69;;;14.83;47.54
21109;BME280;10712;52.944;9.098;2023-02-18T00:51:41;101770.03;;;14.87;47.52
21109;BME280;10712;52.944;9.098;2023-02-18T00:54:08;101768.13;;;14.89;47.70
21109;BME280;10712;52.944;9.098;2023-02-18T00:56:34;101767.34;;;14.87;47.78
21109;BME280;10712;52.944;9.098;2023-02-18T00:59:00;101774.00;;;14.96;47.66
21109;BME280;10712;52.944;9.098;2023-02-18T01:01:26;101774.47;;;14.88;47.85
21109;BME280;10712;52.944;9.098;2023-02-18T01:03:52;101761.38;;;14.98;47.63
21109;BME280;10712;52.944;9.098;2023-02-18T01:06:19;101749.09;;;15.08;47.43
21109;BME280;10712;52.944;9.098;2023-02-18T01:08:48;101753.03;;;15.17;47.26
21109;BME280;10712;52.944;9.098;2023-02-18T01:11:14;101752.75;;;15.07;47.55
21109;BME280;10712;52.944;9.098;2023-02-18T01:13:41;101758.13;;;15.21;47.19
21109;BME280;10712;52.944;9.098;2023-02-18T01:16:08;101752.88;;;15.20;47.12
21109;BME280;10712;52.944;9.098;2023-02-18T01:18:35;101749.41;;;15.18;47.18
21109;BME280;10712;52.944;9.098;2023-02-18T01:21:05;101748.47;;;15.19;46.87
21109;BME280;10712;52.944;9.098;2023-02-18T01:23:37;101741.28;;;15.19;47.17
21109;BME280;10712;52.944;9.098;2023-02-18T01:26:03;101743.66;;;15.24;47.30
21109;BME280;10712;52.944;9.098;2023-02-18T01:28:29;101739.72;;;15.15;47.45
21109;BME280;10712;52.944;9.098;2023-02-18T01:30:55;101738.84;;;15.15;47.56
21109;BME280;10712;52.944;9.098;2023-02-18T01:33:21;101737.16;;;15.14;47.44
21109;BME280;10712;52.944;9.098;2023-02-18T01:35:47;101734.81;;;15.22;47.41
21109;BME280;10712;52.944;9.098;2023-02-18T01:38:14;101724.94;;;15.22;47.35
21109;BME280;10712;52.944;9.098;2023-02-18T01:40:51;101731.00;;;15.26;47.17
21109;BME280;10712;52.944;9.098;2023-02-18T01:43:19;101731.19;;;15.23;47.10
21109;BME280;10712;52.944;9.098;2023-02-18T01:45:56;101730.81;;;15.29;47.30
21109;BME280;10712;52.944;9.098;2023-02-18T01:48:52;101738.38;;;15.36;46.97
21109;BME280;10712;52.944;9.098;2023-02-18T01:51:26;101735.81;;;15.35;47.16
21109;BME280;10712;52.944;9.098;2023-02-18T01:56:40;101718.94;;;15.19;47.49
21109;BME280;10712;52.944;9.098;2023-02-18T01:59:12;101720.44;;;15.23;47.63
21109;BME280;10712;52.944;9.098;2023-02-18T02:01:43;101720.44;;;15.23;47.69
21109;BME280;10712;52.944;9.098;2023-02-18T02:04:09;101717.78;;;15.37;47.30
21109;BME280;10712;52.944;9.098;2023-02-18T02:06:35;101706.66;;;15.29;47.67
21109;BME280;10712;52.944;9.098;2023-02-18T02:09:05;101715.84;;;15.25;47.78
21109;BME280;10712;52.944;9.098;2023-02-18T02:16:57;101717.84;;;15.21;47.89
21109;BME280;10712;52.944;9.098;2023-02-18T02:31:43;101709.22;;;15.16;48.16
21109;BME280;10712;52.944;9.098;2023-02-18T02:40:27;101706.47;;;15.18;47.76
21109;BME280;10712;52.944;9.098;2023-02-18T02:46:27;101696.38;;;15.21;47.63
21109;BME280;10712;52.944;9.098;2023-02-18T02:52:12;101688.44;;;15.20;47.68
21109;BME280;10712;52.944;9.098;2023-02-18T02:54:39;101685.63;;;15.21;47.68
21109;BME280;10712;52.944;9.098;2023-02-18T03:00:07;101679.78;;;15.29;47.34
21109;BME280;10712;52.944;9.098;2023-02-18T03:09:07;101662.16;;;15.39;47.16
21109;BME280;10712;52.944;9.098;2023-02-18T03:11:53;101648.16;;;15.34;47.38
21109;BME280;10712;52.944;9.098;2023-02-18T03:18:09;101641.06;;;15.33;47.23
21109;BME280;10712;52.944;9.098;2023-02-18T03:20:54;101643.06;;;15.29;47.31
21109;BME280;10712;52.944;9.098;2023-02-18T03:23:32;101638.56;;;15.30;47.39
21109;BME280;10712;52.944;9.098;2023-02-18T03:26:03;101632.94;;;15.34;47.41
21109;BME280;10712;52.944;9.098;2023-02-18T03:28:32;101635.00;;;15.29;47.61
21109;BME280;10712;52.944;9.098;2023-02-18T03:31:08;101633.19;;;15.30;47.62
21109;BME280;10712;52.944;9.098;2023-02-18T03:33:51;101635.69;;;15.33;47.64
21109;BME280;10712;52.944;9.098;2023-02-18T03:36:20;101637.22;;;15.37;47.47
21109;BME280;10712;52.944;9.098;2023-02-18T03:39:10;101641.25;;;15.30;47.72
21109;BME280;10712;52.944;9.098;2023-02-18T03:41:38;101633.97;;;15.32;47.83
21109;BME280;10712;52.944;9.098;2023-02-18T03:44:09;101626.69;;;15.34;47.80
21109;BME280;10712;52.944;9.098;2023-02-18T03:46:38;101628.78;;;15.29;47.85
21109;BME280;10712;52.944;9.098;2023-02-18T03:49:05;101634.16;;;15.29;47.99
21109;BME280;10712;52.944;9.098;2023-02-18T03:51:31;101636.66;;;15.32;48.00
21109;BME280;10712;52.944;9.098;2023-02-18T03:53:57;101635.13;;;15.28;48.21
21109;BME280;10712;52.944;9.098;2023-02-18T03:56:23;101638.66;;;15.28;48.33
21109;BME280;10712;52.944;9.098;2023-02-18T03:58:49;101638.47;;;15.31;48.03
21109;BME280;10712;52.944;9.098;2023-02-18T04:01:15;101625.16;;;15.30;48.34
21109;BME280;10712;52.944;9.098;2023-02-18T04:03:41;101619.03;;;15.28;48.32
21109;BME280;10712;52.944;9.098;2023-02-18T04:06:07;101624.50;;;15.26;48.61
21109;BME280;10712;52.944;9.098;2023-02-18T04:08:34;101628.78;;;15.29;48.27
21109;BME280;10712;52.944;9.098;2023-02-18T04:10:59;101625.53;;;15.24;48.66
21109;BME280;10712;52.944;9.098;2023-02-18T04:13:26;101620.16;;;15.24;48.96
21109;BME280;10712;52.944;9.098;2023-02-18T04:15:52;101618.03;;;15.29;48.93
21109;BME280;10712;52.944;9.098;2023-02-18T04:18:19;101616.53;;;15.25;49.36
21109;BME280;10712;52.944;9.098;2023-02-18T04:20:45;101616.72;;;15.22;49.58
21109;BME280;10712;52.944;9.098;2023-02-18T04:23:11;101619.88;;;15.28;49.80
21109;BME280;10712;52.944;9.098;2023-02-18T04:25:37;101615.97;;;15.20;49.95
21109;BME280;10712;52.944;9.098;2023-02-18T04:28:04;101604.63;;;15.15;50.37
21109;BME280;10712;52.944;9.098;2023-02-18T04:30:29;101605.72;;;15.12;50.51
21109;BME280;10712;52.944;9.098;2023-02-18T04:32:55;101609.44;;;15.10;50.64
21109;BME280;10712;52.944;9.098;2023-02-18T04:35:21;101605.03;;;15.09;50.91
21109;BME280;10712;52.944;9.098;2023-02-18T04:37:47;101592.56;;;15.08;51.07
21109;BME280;10712;52.944;9.098;2023-02-18T04:40:13;101591.63;;;15.09;51.20
21109;BME280;10712;52.944;9.098;2023-02-18T04:42:39;101576.69;;;15.05;51.36
21109;BME280;10712;52.944;9.098;2023-02-18T04:45:05;101574.78;;;15.07;51.47
21109;BME280;10712;52.944;9.098;2023-02-18T04:47:31;101562.97;;;15.09;51.73
21109;BME280;10712;52.944;9.098;2023-02-18T04:49:58;101550.88;;;15.02;51.98
21109;BME280;10712;52.944;9.098;2023-02-18T04:52:24;101547.47;;;15.00;52.35
21109;BME280;10712;52.944;9.098;2023-02-18T04:54:50;101537.78;;;14.97;52.36
21109;BME280;10712;52.944;9.098;2023-02-18T04:57:16;101544.25;;;15.08;52.42
21109;BME280;10712;52.944;9.098;2023-02-18T04:59:42;101540.94;;;15.04;52.82
21109;BME280;10712;52.944;9.098;2023-02-18T05:02:08;101546.00;;;15.09;52.93
21109;BME280;10712;52.944;9.098;2023-02-18T05:04:34;101542.94;;;15.01;53.24
21109;BME280;10712;52.944;9.098;2023-02-18T05:07:00;101548.50;;;14.97;53.54
21109;BME280;10712;52.944;9.098;2023-02-18T05:09:25;101536.81;;;14.98;53.63
21109;BME280;10712;52.944;9.098;2023-02-18T05:11:51;101534.13;;;14.98;53.76
21109;BME280;10712;52.944;9.098;2023-02-18T05:14:17;101537.00;;;14.95;54.02
21109;BME280;10712;52.944;9.098;2023-02-18T05:16:43;101544.09;;;14.96;53.98
21109;BME280;10712;52.944;9.098;2023-02-18T05:19:14;101545.81;;;15.12;54.00
21109;BME280;10712;52.944;9.098;2023-02-18T05:21:40;101533.91;;;15.02;54.20
21109;BME280;10712;52.944;9.098;2023-02-18T05:24:06;101532.41;;;14.97;54.33
21109;BME280;10712;52.944;9.098;2023-02-18T05:26:33;101523.59;;;14.95;54.77
21109;BME280;10712;52.944;9.098;2023-02-18T05:28:59;101515.53;;;14.95;54.71
21109;BME280;10712;52.944;9.098;2023-02-18T05:31:25;101514.78;;;14.93;54.84
21109;BME280;10712;52.944;9.098;2023-02-18T05:33:51;101507.50;;;14.95;54.89
21109;BME280;10712;52.944;9.098;2023-02-18T05:36:17;101494.28;;;14.92;55.07
21109;BME280;10712;52.944;9.098;2023-02-18T05:38:42;101489.19;;;14.88;55.19
21109;BME280;10712;52.944;9.098;2023-02-18T05:41:08;101482.97;;;14.87;55.58
21109;BME280;10712;52.944;9.098;2023-02-18T05:43:34;101467.72;;;14.88;55.62
21109;BME280;10712;52.944;9.098;2023-02-18T05:46:20;101467.00;;;14.86;55.70
21109;BME280;10712;52.944;9.098;2023-02-18T05:48:45;101454.44;;;14.86;55.80
21109;BME280;10712;52.944;9.098;2023-02-18T05:51:11;101452.72;;;14.85;55.86
21109;BME280;10712;52.944;9.098;2023-02-18T05:53:37;101443.72;;;14.86;55.89
21109;BME280;10712;52.944;9.098;2023-02-18T05:56:03;101447.34;;;14.85;55.94
21109;BME280;10712;52.944;9.098;2023-02-18T05:58:29;101441.03;;;14.86;55.90
21109;BME280;10712;52.944;9.098;2023-02-18T06:00:55;101433.94;;;14.85;56.02
21109;BME280;10712;52.944;9.098;2023-02-18T06:03:21;101431.25;;;14.85;55.92
21109;BME280;10712;52.944;9.098;2023-02-18T06:05:50;101421.38;;;14.86;56.18
21109;BME280;10712;52.944;9.098;2023-02-18T06:08:16;101422.03;;;14.89;56.19
21109;BME280;10712;52.944;9.098;2023-02-18T06:10:41;101411.53;;;14.86;56.31
21109;BME280;10712;52.944;9.098;2023-02-18T06:13:07;101400.78;;;14.86;56.41
21109;BME280;10712;52.944;9.098;2023-02-18T06:15:33;101391.97;;;14.84;56.61
21109;BME280;10712;52.944;9.098;2023-02-18T06:17:59;101396.56;;;14.82;56.50
21109;BME280;10712;52.944;9.098;2023-02-18T06:20:24;101405.47;;;14.83;56.79
21109;BME280;10712;52.944;9.098;2023-02-18T06:22:50;101384.03;;;14.83;56.71
21109;BME280;10712;52.944;9.098;2023-02-18T06:25:16;101376.06;;;14.81;56.81
21109;BME280;10712;52.944;9.098;2023-02-18T06:27:42;101374.34;;;14.80;57.06
21109;BME280;10712;52.944;9.098;2023-02-18T06:30:08;101359.97;;;14.81;57.08
21109;BME280;10712;52.944;9.098;2023-02-18T06:32:34;101358.06;;;14.83;56.96
21109;BME280;10712;52.944;9.098;2023-02-18T06:35:01;101347.31;;;14.83;57.14
21109;BME280;10712;52.944;9.098;2023-02-18T06:37:27;101349.06;;;14.84;56.97
21109;BME280;10712;52.944;9.098;2023-02-18T06:39:53;101341.97;;;14.83;57.22
21109;BME280;10712;52.944;9.098;2023-02-18T06:42:18;101341.97;;;14.83;57.13
21109;BME280;10712;52.944;9.098;2023-02-18T06:44:44;101325.88;;;14.83;57.45
21109;BME280;10712;52.944;9.098;2023-02-18T06:47:10;101316.84;;;14.84;57.26
21109;BME280;10712;52.944;9.098;2023-02-18T06:49:36;101316.84;;;14.84;57.35
21109;BME280;10712;52.944;9.098;2023-02-18T06:52:04;101314.28;;;14.83;57.50
21109;BME280;10712;52.944;9.098;2023-02-18T06:54:30;101312.53;;;14.82;57.37
21109;BME280;10712;52.944;9.098;2023-02-18T06:56:56;101307.84;;;14.85;57.54
21109;BME280;10712;52.944;9.098;2023-02-18T06:59:22;101302.25;;;14.88;57.43
21109;BME280;10712;52.944;9.098;2023-02-18T07:01:47;101297.75;;;14.89;57.35
21109;BME280;10712;52.944;9.098;2023-02-18T07:04:13;101293.47;;;14.86;57.62
21109;BME280;10712;52.944;9.098;2023-02-18T07:06:39;101289.81;;;14.87;57.73
21109;BME280;10712;52.944;9.098;2023-02-18T07:09:05;101285.00;;;14.92;57.74
21109;BME280;10712;52.944;9.098;2023-02-18T07:11:31;101284.88;;;14.94;57.57
21109;BME280;10712;52.944;9.098;2023-02-18T07:13:57;101276.97;;;14.92;57.85
21109;BME280;10712;52.944;9.098;2023-02-18T07:16:23;101272.47;;;14.93;57.75
21109;BME280;10712;52.944;9.098;2023-02-18T07:18:49;101268.78;;;14.94;57.76
21109;BME280;10712;52.944;9.098;2023-02-18T07:21:15;101264.28;;;14.94;57.78
21109;BME280;10712;52.944;9.098;2023-02-18T07:23:40;101250.69;;;14.97;57.92
21109;BME280;10712;52.944;9.098;2023-02-18T07:26:10;101255.09;;;14.98;57.85
21109;BME280;10712;52.944;9.098;2023-02-18T07:28:38;101237.03;;;15.01;57.80
21109;BME280;10712;52.944;9.098;2023-02-18T07:31:05;101236.19;;;15.00;57.97
21109;BME280;10712;52.944;9.098;2023-02-18T07:33:32;101235.34;;;15.00;57.91
21109;BME280;10712;52.944;9.098;2023-02-18T07:36:00;101219.25;;;15.00;57.85
21109;BME280;10712;52.944;9.098;2023-02-18T07:38:27;101214.59;;;15.02;58.05
21109;BME280;10712;52.944;9.098;2023-02-18T07:40:54;101210.19;;;15.01;57.91
21109;BME280;10712;52.944;9.098;2023-02-18T07:43:20;101207.41;;;15.02;57.99
21109;BME280;10712;52.944;9.098;2023-02-18T07:45:46;101197.34;;;15.06;58.20
21109;BME280;10712;52.944;9.098;2023-02-18T07:48:12;101197.78;;;15.00;58.11
21109;BME280;10712;52.944;9.098;2023-02-18T07:50:43;101188.53;;;15.04;58.16
21109;BME280;10712;52.944;9.098;2023-02-18T07:53:12;101174.16;;;15.05;58.22
21109;BME280;10712;52.944;9.098;2023-02-18T07:55:38;101175.88;;;15.06;58.27
21109;BME280;10712;52.944;9.098;2023-02-18T07:58:29;101162.78;;;15.14;58.14
21109;BME280;10712;52.944;9.098;2023-02-18T08:00:56;101174.47;;;15.13;58.53
21109;BME280;10712;52.944;9.098;2023-02-18T08:03:30;101161.25;;;15.22;58.43
21109;BME280;10712;52.944;9.098;2023-02-18T08:05:57;101157.38;;;15.39;58.26
21109;BME280;10712;52.944;9.098;2023-02-18T08:08:26;101145.16;;;15.35;58.73
21109;BME280;10712;52.944;9.098;2023-02-18T08:10:57;101143.16;;;15.50;58.72
21109;BME280;10712;52.944;9.098;2023-02-18T08:13:23;101133.28;;;15.50;58.81
21109;BME280;10712;52.944;9.098;2023-02-18T08:15:49;101132.44;;;15.62;58.97
21109;BME280;10712;52.944;9.098;2023-02-18T08:18:21;101114.66;;;15.72;58.92
21109;BME280;10712;52.944;9.098;2023-02-18T08:20:48;101114.16;;;15.67;59.29
21109;BME280;10712;52.944;9.098;2023-02-18T08:23:17;101106.09;;;15.67;59.47
21109;BME280;10712;52.944;9.098;2023-02-18T08:25:49;101109.84;;;15.65;59.58
21109;BME280;10712;52.944;9.098;2023-02-18T08:28:17;101097.28;;;15.65;59.77
21109;BME280;10712;52.944;9.098;2023-02-18T08:30:49;101090.03;;;15.79;59.63
21109;BME280;10712;52.944;9.098;2023-02-18T08:33:16;101082.31;;;15.74;59.99
21109;BME280;10712;52.944;9.098;2023-02-18T08:35:45;101090.44;;;15.85;60.12
21109;BME280;10712;52.944;9.098;2023-02-18T08:38:11;101092.16;;;15.86;60.26
21109;BME280;10712;52.944;9.098;2023-02-18T08:40:37;101095.75;;;15.98;60.45
21109;BME280;10712;52.944;9.098;2023-02-18T08:43:06;101081.25;;;16.11;60.59
21109;BME280;10712;52.944;9.098;2023-02-18T08:45:32;101083.16;;;16.22;60.71
21109;BME280;10712;52.944;9.098;2023-02-18T08:47:58;101083.44;;;16.41;61.16
21109;BME280;10712;52.944;9.098;2023-02-18T08:50:24;101067.84;;;16.58;61.51
21109;BME280;10712;52.944;9.098;2023-02-18T08:52:52;101056.28;;;16.79;61.65
21109;BME280;10712;52.944;9.098;2023-02-18T08:55:18;101049.56;;;16.85;62.15
21109;BME280;10712;52.944;9.098;2023-02-18T08:57:47;101040.38;;;16.99;62.00
21109;BME280;10712;52.944;9.098;2023-02-18T09:00:16;101044.53;;;17.14;62.07
21109;BME280;10712;52.944;9.098;2023-02-18T09:02:42;101043.91;;;17.21;62.21
21109;BME280;10712;52.944;9.098;2023-02-18T09:05:10;101046.44;;;17.34;62.24
21109;BME280;10712;52.944;9.098;2023-02-18T09:07:37;101043.59;;;17.36;62.64
21109;BME280;10712;52.944;9.098;2023-02-18T09:10:03;101042.97;;;17.43;62.74
21109;BME280;10712;52.944;9.098;2023-02-18T09:12:31;101046.81;;;17.41;63.30
21109;BME280;10712;52.944;9.098;2023-02-18T09:14:57;101040.41;;;17.53;62.87
21109;BME280;10712;52.944;9.098;2023-02-18T09:17:22;101043.56;;;17.58;62.99
21109;BME280;10712;52.944;9.098;2023-02-18T09:19:48;101035.00;;;17.64;62.93
21109;BME280;10712;52.944;9.098;2023-02-18T09:22:14;101030.09;;;17.69;63.05
21109;BME280;10712;52.944;9.098;2023-02-18T09:24:41;101033.78;;;17.68;63.35
21109;BME280;10712;52.944;9.098;2023-02-18T09:27:07;101035.22;;;17.72;63.32
21109;BME280;10712;52.944;9.098;2023-02-18T09:29:37;101027.81;;;17.85;63.08
21109;BME280;10712;52.944;9.098;2023-02-18T09:32:04;101033.69;;;17.90;62.91
21109;BME280;10712;52.944;9.098;2023-02-18T09:34:31;101022.50;;;17.95;63.09
21109;BME280;10712;52.944;9.098;2023-02-18T09:36:57;101029.50;;;17.97;63.00
21109;BME280;10712;52.944;9.098;2023-02-18T09:39:23;101028.69;;;18.06;62.95
21109;BME280;10712;52.944;9.098;2023-02-18T09:41:57;101023.09;;;17.98;63.13
21109;BME280;10712;52.944;9.098;2023-02-18T09:44:39;101013.03;;;18.00;63.30
21109;BME280;10712;52.944;9.098;2023-02-18T09:47:29;101012.78;;;18.03;63.08
21109;BME280;10712;52.944;9.098;2023-02-18T09:50:10;101014.56;;;18.14;62.72
21109;BME280;10712;52.944;9.098;2023-02-18T09:52:39;101004.91;;;18.12;63.12
21109;BME280;10712;52.944;9.098;2023-02-18T09:57:56;101007.13;;;18.06;63.13
21109;BME280;10712;52.944;9.098;2023-02-18T10:00:36;101012.53;;;18.06;62.89
21109;BME280;10712;52.944;9.098;2023-02-18T10:03:22;101003.19;;;18.10;63.06
21109;BME280;10712;52.944;9.098;2023-02-18T10:05:55;101008.72;;;18.30;62.37
21109;BME280;10712;52.944;9.098;2023-02-18T10:08:27;101005.56;;;18.25;62.75
21109;BME280;10712;52.944;9.098;2023-02-18T10:10:54;101007.13;;;18.06;63.35
21109;BME280;10712;52.944;9.098;2023-02-18T10:13:24;101014.31;;;18.17;62.57
21109;BME280;10712;52.944;9.098;2023-02-18T10:15:51;101002.53;;;17.97;62.80
21109;BME280;10712;52.944;9.098;2023-02-18T10:18:42;101010.41;;;17.89;62.86
21109;BME280;10712;52.944;9.098;2023-02-18T10:21:17;101006.94;;;18.19;62.03
21109;BME280;10712;52.944;9.098;2023-02-18T10:24:03;100996.88;;;18.00;62.27
21109;BME280;10712;52.944;9.098;2023-02-18T10:26:34;101007.22;;;18.16;61.70
21109;BME280;10712;52.944;9.098;2023-02-18T10:29:01;101017.00;;;17.96;62.57
21109;BME280;10712;52.944;9.098;2023-02-18T10:31:36;101014.13;;;18.09;61.93
21109;BME280;10712;52.944;9.098;2023-02-18T10:34:37;101021.09;;;18.12;61.73
21109;BME280;10712;52.944;9.098;2023-02-18T10:37:17;101023.25;;;18.18;61.34
21109;BME280;10712;52.944;9.098;2023-02-18T10:40:12;101017.06;;;18.27;61.04
21109;BME280;10712;52.944;9.098;2023-02-18T10:43:16;101021.91;;;18.33;60.64
21109;BME280;10712;52.944;9.098;2023-02-18T10:46:26;101013.03;;;18.00;61.83
21109;BME280;10712;52.944;9.098;2023-02-18T10:51:36;101007.75;;;18.10;61.80
21109;BME280;10712;52.944;9.098;2023-02-18T10:54:06;101012.94;;;18.23;61.26
21109;BME280;10712;52.944;9.098;2023-02-18T10:56:41;101002.66;;;18.17;61.52
21109;BME280;10712;52.944;9.098;2023-02-18T10:59:26;101006.59;;;18.13;61.62
21109;BME280;10712;52.944;9.098;2023-02-18T11:01:57;101003.97;;;18.01;62.22
21109;BME280;10712;52.944;9.098;2023-02-18T11:04:44;101002.38;;;18.20;61.46
21109;BME280;10712;52.944;9.098;2023-02-18T11:07:22;100992.13;;;17.93;62.24
21109;BME280;10712;52.944;9.098;2023-02-18T11:09:54;100984.78;;;18.16;61.70
21109;BME280;10712;52.944;9.098;2023-02-18T11:12:40;100999.00;;;18.18;61.67
21109;BME280;10712;52.944;9.098;2023-02-18T11:17:43;100996.66;;;17.92;62.62
21109;BME280;10712;52.944;9.098;2023-02-18T11:20:31;100998.13;;;17.96;62.52
21109;BME280;10712;52.944;9.098;2023-02-18T11:23:16;100990.75;;;18.19;61.77
21109;BME280;10712;52.944;9.098;2023-02-18T11:26:04;100984.13;;;18.02;62.30
21109;BME280;10712;52.944;9.098;2023-02-18T11:28:45;100979.72;;;18.01;62.09
21109;BME280;10712;52.944;9.098;2023-02-18T11:31:25;100987.69;;;18.24;61.42
21109;BME280;10712;52.944;9.098;2023-02-18T11:33:59;100993.31;;;18.21;61.30
21109;BME280;10712;52.944;9.098;2023-02-18T11:36:34;100993.31;;;18.21;61.48
21109;BME280;10712;52.944;9.098;2023-02-18T11:39:26;100997.28;;;18.17;61.23
21109;BME280;10712;52.944;9.098;2023-02-18T11:42:03;100985.31;;;18.09;61.38
21109;BME280;10712;52.944;9.098;2023-02-18T11:44:35;101001.34;;;18.32;60.89
21109;BME280;10712;52.944;9.098;2023-02-18T11:49:59;100997.28;;;18.17;61.14
21109;BME280;10712;52.944;9.098;2023-02-18T11:52:32;100999.13;;;17.52;62.93
21109;BME280;10712;52.944;9.098;2023-02-18T11:55:06;101001.47;;;17.89;62.22
21109;BME280;10712;52.944;9.098;2023-02-18T11:57:37;100994.78;;;17.83;62.10
21109;BME280;10712;52.944;9.098;2023-02-18T12:00:20;100999.91;;;18.07;61.16
21109;BME280;10712;52.944;9.098;2023-02-18T12:02:47;100995.00;;;17.80;61.89
21109;BME280;10712;52.944;9.098;2023-02-18T12:05:25;101003.28;;;17.56;62.93
21109;BME280;10712;52.944;9.098;2023-02-18T12:08:10;101003.03;;;17.91;61.85
21109;BME280;10712;52.944;9.098;2023-02-18T12:10:46;101000.41;;;17.80;62.14
21109;BME280;10712;52.944;9.098;2023-02-18T12:13:36;101005.44;;;17.30;63.22
21109;BME280;10712;52.944;9.098;2023-02-18T12:16:36;101009.44;;;17.90;61.76
21109;BME280;10712;52.944;9.098;2023-02-18T12:22:00;101010.88;;;17.94;61.46
21109;BME280;10712;52.944;9.098;2023-02-18T12:24:55;101001.50;;;18.09;60.84
21109;BME280;10712;52.944;9.098;2023-02-18T12:27:47;101023.16;;;17.87;61.32
21109;BME280;10712;52.944;9.098;2023-02-18T12:33:32;101010.50;;;17.67;61.82
21109;BME280;10712;52.944;9.098;2023-02-18T12:37:08;101013.69;;;17.50;62.55
21109;BME280;10712;52.944;9.098;2023-02-18T12:40:06;101016.25;;;17.94;61.01
21109;BME280;10712;52.944;9.098;2023-02-18T12:43:05;101026.41;;;18.02;61.04
21109;BME280;10712;52.944;9.098;2023-02-18T12:48:39;101008.19;;;17.94;61.38
21109;BME280;10712;52.944;9.098;2023-02-18T12:57:58;101035.38;;;17.91;61.73
21109;BME280;10712;52.944;9.098;2023-02-18T13:03:26;101040.78;;;17.91;61.62
21109;BME280;10712;52.944;9.098;2023-02-18T13:15:04;101051.97;;;18.07;60.74
21109;BME280;10712;52.944;9.098;2023-02-18T13:17:38;101051.66;;;18.01;60.67
21109;BME280;10712;52.944;9.098;2023-02-18T13:20:20;101050.97;;;17.88;61.26
21109;BME280;10712;52.944;9.098;2023-02-18T13:22:48;101051.97;;;18.07;60.63
21109;BME280;10712;52.944;9.098;2023-02-18T13:25:16;101061.06;;;18.06;60.80
21109;BME280;10712;52.944;9.098;2023-02-18T13:28:27;101064.06;;;17.92;61.22
21109;BME280;10712;52.944;9.098;2023-02-18T13:36:57;101065.56;;;17.85;61.35
21109;BME280;10712;52.944;9.098;2023-02-18T13:39:27;101058.41;;;17.95;61.21
21109;BME280;10712;52.944;9.098;2023-02-18T13:45:01;101079.47;;;18.01;61.31
21109;BME280;10712;52.944;9.098;2023-02-18T13:47:46;101052.56;;;17.90;61.52
21109;BME280;10712;52.944;9.098;2023-02-18T13:56:02;101075.19;;;17.99;61.37
21109;BME280;10712;52.944;9.098;2023-02-18T13:58:50;101069.75;;;18.10;60.92
21109;BME280;10712;52.944;9.098;2023-02-18T14:01:48;101072.63;;;17.97;61.22
21109;BME280;10712;52.944;9.098;2023-02-18T14:04:47;101082.84;;;18.15;60.69
21109;BME280;10712;52.944;9.098;2023-02-18T14:12:40;101098.03;;;18.16;60.62
21109;BME280;10712;52.944;9.098;2023-02-18T14:26:22;101112.41;;;18.05;60.73
21109;BME280;10712;52.944;9.098;2023-02-18T14:28:55;101114.00;;;18.07;60.71
21109;BME280;10712;52.944;9.098;2023-02-18T14:31:46;101124.03;;;18.05;60.82
21109;BME280;10712;52.944;9.098;2023-02-18T14:37:50;101133.38;;;18.01;61.25
21109;BME280;10712;52.944;9.098;2023-02-18T14:40:43;101135.34;;;17.99;60.82
21109;BME280;10712;52.944;9.098;2023-02-18T14:49:35;101131.50;;;17.81;61.28
21109;BME280;10712;52.944;9.098;2023-02-18T14:52:05;101141.53;;;17.90;61.28
21109;BME280;10712;52.944;9.098;2023-02-18T14:54:39;101145.69;;;17.83;61.34
21109;BME280;10712;52.944;9.098;2023-02-18T14:57:16;101139.06;;;17.87;61.14
21109;BME280;10712;52.944;9.098;2023-02-18T14:59:43;101146.41;;;17.85;61.33
21109;BME280;10712;52.944;9.098;2023-02-18T15:02:20;101146.63;;;17.93;60.79
21109;BME280;10712;52.944;9.098;2023-02-18T15:04:47;101152.78;;;17.95;60.62
21109;BME280;10712;52.944;9.098;2023-02-18T15:07:19;101157.94;;;17.87;60.45
21109;BME280;10712;52.944;9.098;2023-02-18T15:09:52;101168.00;;;17.74;60.75
21109;BME280;10712;52.944;9.098;2023-02-18T15:12:22;101165.78;;;17.79;60.22
21109;BME280;10712;52.944;9.098;2023-02-18T15:14:51;101174.25;;;17.75;59.42
21109;BME280;10712;52.944;9.098;2023-02-18T15:17:24;101172.38;;;17.86;58.96